Time;durP1;ratioP1;P1;durP2;ratioP2;P2;SDS_P1;SDS_P2;PMS_P1;PMS_P2;Temp;Humidity;BMP_temperature;BMP_pressure;BME280_temperature;BME280_humidity;BME280_pressure;Samples;Min_cycle;Max_cycle;Signal;HPM_P1;HPM_P2
2022/04/16 00:01:49;;;;;;;2.47;1.23;;;13.40;55.30;;;;;;4835141;29;20459;-60
2022/04/16 00:04:22;;;;;;;1.33;1.23;;;13.50;55.70;;;;;;4832319;29;20837;-60
2022/04/16 00:06:53;;;;;;;1.23;1.17;;;13.20;54.40;;;;;;4844237;29;20458;-60
2022/04/16 00:09:23;;;;;;;2.23;1.50;;;13.10;55.50;;;;;;4842932;29;20493;-60
2022/04/16 00:11:54;;;;;;;1.20;1.10;;;13.20;57.00;;;;;;4840464;29;20494;-60
2022/04/16 00:14:28;;;;;;;1.50;1.10;;;13.20;54.70;;;;;;4848263;29;20566;-60
2022/04/16 00:16:59;;;;;;;1.37;1.27;;;13.20;54.80;;;;;;4843320;29;20469;-59
2022/04/16 00:19:31;;;;;;;1.40;1.30;;;13.30;54.50;;;;;;4843282;29;20462;-60
2022/04/16 00:22:07;;;;;;;2.13;1.37;;;13.30;55.20;;;;;;4842394;29;20455;-59
2022/04/16 00:24:38;;;;;;;1.40;1.30;;;13.30;55.40;;;;;;4843330;29;20454;-67
2022/04/16 00:27:09;;;;;;;1.43;1.10;;;13.10;52.20;;;;;;4841682;29;20463;-66
2022/04/16 00:29:40;;;;;;;1.10;1.10;;;13.10;52.90;;;;;;4844975;29;20453;-67
2022/04/16 00:32:11;;;;;;;1.30;1.20;;;13.10;56.60;;;;;;4841769;29;20520;-66
2022/04/16 00:34:45;;;;;;;1.47;1.20;;;13.20;56.80;;;;;;4838927;29;20458;-63
2022/04/16 00:37:16;;;;;;;2.23;1.20;;;13.20;54.80;;;;;;4847904;29;20537;-68
2022/04/16 00:39:47;;;;;;;1.30;1.20;;;13.00;54.20;;;;;;4839534;29;20456;-69
2022/04/16 00:42:18;;;;;;;1.37;1.27;;;13.20;55.90;;;;;;4835987;29;20467;-62
2022/04/16 00:44:49;;;;;;;1.10;1.10;;;13.20;56.00;;;;;;4840489;29;20548;-64
2022/04/16 00:47:19;;;;;;;2.27;1.27;;;13.20;56.40;;;;;;4843960;29;20927;-61
2022/04/16 00:49:52;;;;;;;0.80;0.80;;;13.10;54.90;;;;;;4843601;29;20951;-62
2022/04/16 00:52:23;;;;;;;1.00;0.90;;;13.00;56.40;;;;;;4847940;29;20497;-61
2022/04/16 00:54:56;;;;;;;2.00;1.20;;;12.90;56.80;;;;;;4844894;29;20459;-61
2022/04/16 00:57:27;;;;;;;0.70;0.70;;;13.00;55.90;;;;;;4838640;29;20989;-60
2022/04/16 00:59:58;;;;;;;1.00;0.80;;;12.90;56.00;;;;;;4843514;29;20467;-60
2022/04/16 01:02:29;;;;;;;1.00;0.90;;;12.90;56.80;;;;;;4846723;29;20462;-61
2022/04/16 01:05:02;;;;;;;1.27;1.00;;;12.80;54.90;;;;;;4843986;29;20467;-60
2022/04/16 01:07:33;;;;;;;0.80;0.80;;;12.80;56.50;;;;;;4843285;29;20447;-61
2022/04/16 01:10:04;;;;;;;1.80;1.20;;;12.80;54.80;;;;;;4834029;29;20577;-62
2022/04/16 01:12:34;;;;;;;1.00;0.80;;;12.70;54.40;;;;;;4837889;29;20501;-62
2022/04/16 01:15:06;;;;;;;1.10;1.03;;;12.60;56.10;;;;;;4833902;29;20845;-68
2022/04/16 01:17:37;;;;;;;0.90;0.90;;;12.50;55.50;;;;;;4846351;29;20473;-67
2022/04/16 01:20:11;;;;;;;1.47;1.00;;;12.50;54.30;;;;;;4847825;29;20466;-67
2022/04/16 01:22:43;;;;;;;1.33;0.97;;;12.50;53.60;;;;;;4853612;29;20469;-65
2022/04/16 01:25:14;;;;;;;1.20;0.83;;;12.40;55.00;;;;;;4849215;29;20771;-68
2022/04/16 01:27:46;;;;;;;1.07;0.80;;;12.30;54.80;;;;;;4851142;29;20458;-67
2022/04/16 01:30:19;;;;;;;1.23;1.10;;;12.30;54.30;;;;;;4850333;29;20492;-66
2022/04/16 01:32:50;;;;;;;0.80;0.80;;;12.30;52.90;;;;;;4847500;29;20497;-66
2022/04/16 01:35:21;;;;;;;3.70;0.87;;;12.30;55.00;;;;;;4849513;29;20466;-65
2022/04/16 01:37:54;;;;;;;0.67;0.63;;;12.20;52.90;;;;;;4852320;29;20510;-65
2022/04/16 01:40:25;;;;;;;0.87;0.87;;;12.20;52.70;;;;;;4848114;29;20482;-61
2022/04/16 01:42:57;;;;;;;1.27;0.97;;;12.10;57.20;;;;;;4839705;29;20486;-61
2022/04/16 01:45:28;;;;;;;0.83;0.83;;;12.00;55.50;;;;;;4846918;29;20486;-59
2022/04/16 01:48:00;;;;;;;0.87;0.87;;;12.00;51.90;;;;;;4846658;29;20478;-60
2022/04/16 01:50:31;;;;;;;0.73;0.70;;;12.00;53.70;;;;;;4842209;29;20451;-60
2022/04/16 01:53:03;;;;;;;1.70;1.23;;;11.90;57.50;;;;;;4846737;29;20482;-59
2022/04/16 01:55:34;;;;;;;1.30;1.20;;;11.80;56.80;;;;;;4850929;29;20469;-59
2022/04/16 01:58:05;;;;;;;3.23;1.77;;;11.70;55.80;;;;;;4843191;29;20463;-59
2022/04/16 02:00:39;;;;;;;30.17;17.13;;;11.60;55.90;;;;;;4839830;29;20470;-59
2022/04/16 02:03:10;;;;;;;5.93;3.70;;;11.60;57.10;;;;;;4843267;29;20454;-64
2022/04/16 02:05:41;;;;;;;5.60;2.60;;;11.60;55.30;;;;;;4842117;29;20459;-59
2022/04/16 02:08:14;;;;;;;3.60;2.73;;;11.60;56.30;;;;;;4849416;29;20982;-64
2022/04/16 02:10:45;;;;;;;5.03;4.53;;;11.40;57.30;;;;;;4850170;29;20462;-64
2022/04/16 02:13:17;;;;;;;3.97;3.57;;;11.30;58.60;;;;;;4840634;29;20505;-67
2022/04/16 02:15:47;;;;;;;2.00;1.80;;;11.20;64.10;;;;;;4849633;29;20477;-63
2022/04/16 02:18:18;;;;;;;1.37;1.27;;;11.20;58.20;;;;;;4844004;29;20574;-65
2022/04/16 02:20:49;;;;;;;1.30;1.20;;;11.10;59.20;;;;;;4845105;29;20530;-65
2022/04/16 02:23:21;;;;;;;1.70;1.10;;;11.00;62.30;;;;;;4849293;29;20474;-64
2022/04/16 02:25:53;;;;;;;0.80;0.80;;;10.90;61.50;;;;;;4852322;29;20470;-67
2022/04/16 02:28:23;;;;;;;1.47;1.37;;;10.80;63.40;;;;;;4841250;29;20467;-64
2022/04/16 02:30:58;;;;;;;0.97;0.97;;;10.80;65.70;;;;;;4842860;29;20486;-65
2022/04/16 02:33:38;;;;;;;1.30;1.20;;;10.70;67.00;;;;;;4851277;29;20497;-64
2022/04/16 02:36:13;;;;;;;2.23;1.33;;;10.60;62.00;;;;;;4846609;29;20459;-64
2022/04/16 02:38:47;;;;;;;1.37;1.27;;;10.40;69.90;;;;;;4850395;29;20454;-60
2022/04/16 02:41:19;;;;;;;1.17;1.17;;;10.30;74.30;;;;;;4841876;29;20491;-60
2022/04/16 02:43:54;;;;;;;1.20;1.10;;;10.20;73.90;;;;;;4839020;29;20534;-59
2022/04/16 02:49:13;;;;;;;2.80;1.20;;;10.00;69.50;;;;;;4848052;29;20526;-60
2022/04/16 02:51:45;;;;;;;1.60;1.50;;;10.00;74.70;;;;;;4846105;29;20791;-59
2022/04/16 02:54:19;;;;;;;3.40;1.90;;;9.80;77.30;;;;;;4849575;29;20569;-60
2022/04/16 02:56:50;;;;;;;2.00;1.90;;;9.70;78.30;;;;;;4850103;29;20452;-60
2022/04/16 02:59:22;;;;;;;7.10;5.67;;;9.50;83.60;;;;;;4845514;29;21017;-59
2022/04/16 03:01:54;;;;;;;10.50;8.07;;;9.40;80.70;;;;;;4847146;29;20459;-59
2022/04/16 03:04:26;;;;;;;24.60;16.60;;;9.30;87.60;;;;;;4849490;29;20462;-58
2022/04/16 03:06:57;;;;;;;41.67;28.23;;;9.20;85.00;;;;;;4849579;29;20482;-60
2022/04/16 03:09:31;;;;;;;15.93;13.10;;;9.10;90.50;;;;;;4845729;29;20487;-59
2022/04/16 03:12:02;;;;;;;15.33;11.77;;;9.00;87.10;;;;;;4847385;29;20478;-60
2022/04/16 03:17:33;;;;;;;4.90;4.13;;;8.80;91.10;;;;;;4840325;29;20463;-60
2022/04/16 03:20:06;;;;;;;3.55;3.17;;;8.70;90.80;;;;;;4847105;29;20305;-60
2022/04/16 03:22:37;;;;;;;3.30;3.03;;;8.60;94.20;;;;;;4846548;29;20246;-60
2022/04/16 03:25:10;;;;;;;2.70;2.50;;;8.60;95.00;;;;;;4837358;29;20216;-60
2022/04/16 03:27:41;;;;;;;2.60;2.40;;;8.50;96.00;;;;;;4837280;29;20220;-60
2022/04/16 03:30:13;;;;;;;3.20;2.90;;;8.50;94.70;;;;;;4848652;29;20201;-60
2022/04/16 03:32:44;;;;;;;3.23;2.93;;;8.50;96.10;;;;;;4836901;29;20459;-60
2022/04/16 03:35:16;;;;;;;3.90;3.20;;;8.50;98.50;;;;;;4839807;29;20478;-60
2022/04/16 03:37:48;;;;;;;3.05;2.85;;;8.50;98.30;;;;;;4838119;29;20222;-60
2022/04/16 03:40:24;;;;;;;3.57;2.90;;;8.60;99.90;;;;;;4842220;29;20553;-59
2022/04/16 03:42:58;;;;;;;4.03;2.57;;;8.60;99.90;;;;;;4846528;29;20919;-59
2022/04/16 03:45:30;;;;;;;3.25;2.60;;;8.70;99.90;;;;;;4849194;29;20458;-60
2022/04/16 03:48:03;;;;;;;2.93;2.73;;;8.60;99.90;;;;;;4842598;29;20564;-60
2022/04/16 03:50:35;;;;;;;2.30;2.10;;;8.70;99.90;;;;;;4844680;29;20459;-60
2022/04/16 03:53:07;;;;;;;2.77;2.57;;;8.70;99.90;;;;;;4842168;29;20213;-60
2022/04/16 04:01:16;;;;;;;3.33;2.73;;;8.70;99.90;;;;;;4837588;29;20201;-61
2022/04/16 04:03:48;;;;;;;3.88;3.58;;;8.70;99.90;;;;;;4836832;29;20541;-61
2022/04/16 04:06:19;;;;;;;5.40;3.00;;;8.70;99.90;;;;;;4841962;29;20253;-61
2022/04/16 04:08:50;;;;;;;4.70;3.10;;;8.70;99.90;;;;;;4839706;29;20486;-61
2022/04/16 04:11:25;;;;;;;4.40;3.43;;;8.80;99.90;;;;;;4841287;29;20477;-62
2022/04/16 04:13:57;;;;;;;4.90;4.40;;;8.80;99.90;;;;;;4847641;29;20536;-61
2022/04/16 04:16:29;;;;;;;6.13;4.50;;;8.80;99.90;;;;;;4845238;29;20784;-62
2022/04/16 04:19:01;;;;;;;4.65;4.15;;;8.80;99.90;;;;;;4849701;29;20465;-60
2022/04/16 04:21:32;;;;;;;4.18;2.80;;;8.80;99.90;;;;;;4845484;29;20209;-60
2022/04/16 04:24:04;;;;;;;3.28;2.60;;;8.90;99.80;;;;;;4844120;29;20212;-61
2022/04/16 04:26:37;;;;;;;2.50;2.30;;;9.00;99.90;;;;;;4843655;29;20210;-61
2022/04/16 04:29:08;;;;;;;2.85;2.10;;;9.00;99.90;;;;;;4848957;29;21325;-61
2022/04/16 04:31:40;;;;;;;2.45;2.25;;;9.00;99.90;;;;;;4845825;29;20205;-64
2022/04/16 04:34:11;;;;;;;2.10;1.80;;;9.00;99.90;;;;;;4839254;29;20274;-61
2022/04/16 04:36:43;;;;;;;2.30;1.70;;;9.00;99.90;;;;;;4846447;29;20459;-61
2022/04/16 04:39:14;;;;;;;3.03;1.75;;;8.90;99.90;;;;;;4839676;29;20590;-61
2022/04/16 04:41:48;;;;;;;2.17;1.92;;;8.80;99.90;;;;;;4850566;29;20712;-61
2022/04/16 04:44:19;;;;;;;1.45;1.35;;;8.80;99.90;;;;;;4841970;29;20598;-61
2022/04/16 04:46:55;;;;;;;1.95;1.73;;;8.70;99.90;;;;;;4837477;29;20281;-61
2022/04/16 04:49:26;;;;;;;2.08;1.92;;;8.60;99.90;;;;;;4849882;29;20265;-62
2022/04/16 04:51:58;;;;;;;1.85;1.75;;;8.70;99.90;;;;;;4842510;29;20277;-61
2022/04/16 04:54:30;;;;;;;1.65;1.45;;;8.60;99.90;;;;;;4846035;29;20229;-62
2022/04/16 04:57:05;;;;;;;1.98;1.75;;;8.60;99.90;;;;;;4843984;29;20213;-61
2022/04/16 04:59:37;;;;;;;1.83;1.73;;;8.60;99.90;;;;;;4848606;29;20220;-61
2022/04/16 05:02:09;;;;;;;1.75;1.65;;;8.50;99.90;;;;;;4850406;29;20209;-62
2022/04/16 05:04:42;;;;;;;2.40;2.20;;;8.50;99.90;;;;;;4849080;29;20696;-61
2022/04/16 05:07:14;;;;;;;1.70;1.60;;;8.40;99.90;;;;;;4846284;29;20277;-62
2022/04/16 05:09:48;;;;;;;1.90;1.80;;;8.30;99.90;;;;;;4838664;29;20244;-62
2022/04/16 05:15:49;;;;;;;2.50;2.20;;;8.30;99.90;;;;;;4853994;29;20237;-61
2022/04/16 05:18:21;;;;;;;1.25;1.15;;;8.20;99.90;;;;;;4853311;29;20213;-61
2022/04/16 05:20:52;;;;;;;1.23;1.20;;;8.10;99.90;;;;;;4852983;29;20219;-61
2022/04/16 05:23:24;;;;;;;1.58;1.48;;;7.90;99.90;;;;;;4848481;29;20250;-61
2022/04/16 05:25:56;;;;;;;2.45;2.25;;;7.90;99.90;;;;;;4845579;29;20206;-61
2022/04/16 05:28:29;;;;;;;1.75;1.65;;;7.90;99.90;;;;;;4851274;29;20225;-61
2022/04/16 05:31:01;;;;;;;1.90;1.63;;;7.80;99.90;;;;;;4835465;29;20214;-61
2022/04/16 05:36:21;;;;;;;5.10;1.38;;;7.60;99.90;;;;;;4848804;29;20531;-62
2022/04/16 05:38:52;;;;;;;1.70;1.60;;;7.50;99.90;;;;;;4848407;29;20529;-62
2022/04/16 05:41:23;;;;;;;4.18;1.70;;;7.50;99.90;;;;;;4849132;29;20203;-61
2022/04/16 05:43:57;;;;;;;1.67;1.50;;;7.50;99.90;;;;;;4843375;29;20565;-61
2022/04/16 05:46:34;;;;;;;1.45;1.35;;;7.50;99.90;;;;;;4834648;29;20249;-61
2022/04/16 05:49:06;;;;;;;2.13;1.73;;;7.40;99.90;;;;;;4847676;29;20215;-60
2022/04/16 05:51:37;;;;;;;1.70;1.60;;;7.40;99.90;;;;;;4837801;29;20203;-61
2022/04/16 05:54:08;;;;;;;1.67;1.48;;;7.40;99.90;;;;;;4846496;29;21727;-60
2022/04/16 05:56:40;;;;;;;2.15;1.65;;;7.30;99.90;;;;;;4849372;29;20296;-59
2022/04/16 05:59:13;;;;;;;2.03;1.83;;;7.20;99.90;;;;;;4846920;29;20293;-61
2022/04/16 06:01:45;;;;;;;1.90;1.80;;;7.20;99.90;;;;;;4847584;29;20289;-59
2022/04/16 06:04:17;;;;;;;1.73;1.63;;;7.20;99.90;;;;;;4839935;29;20241;-62
2022/04/16 06:06:48;;;;;;;1.90;1.75;;;7.10;99.90;;;;;;4850971;29;20229;-59
2022/04/16 06:09:19;;;;;;;1.70;1.60;;;7.20;99.90;;;;;;4846705;29;20237;-59
2022/04/16 06:11:52;;;;;;;1.80;1.70;;;7.20;99.90;;;;;;4839997;29;20550;-59
2022/04/16 06:14:24;;;;;;;2.25;2.05;;;7.20;99.90;;;;;;4840240;29;20991;-59
2022/04/16 06:16:55;;;;;;;2.00;1.90;;;7.20;99.90;;;;;;4849321;29;20237;-61
2022/04/16 06:19:26;;;;;;;2.00;1.80;;;7.20;99.90;;;;;;4836214;29;20221;-60
2022/04/16 06:21:57;;;;;;;2.42;1.95;;;7.30;99.90;;;;;;4836550;29;20214;-60
2022/04/16 06:24:28;;;;;;;1.90;1.80;;;7.30;99.90;;;;;;4838440;29;20205;-60
2022/04/16 06:26:59;;;;;;;2.13;1.70;;;7.30;99.90;;;;;;4847077;29;20209;-60
2022/04/16 06:29:32;;;;;;;2.10;1.92;;;7.30;99.90;;;;;;4844807;29;20206;-60
2022/04/16 06:32:03;;;;;;;1.63;1.52;;;7.20;99.90;;;;;;4843938;29;20394;-60
2022/04/16 06:34:34;;;;;;;2.15;1.90;;;7.20;99.90;;;;;;4849779;29;20320;-60
2022/04/16 06:37:06;;;;;;;2.40;1.90;;;7.20;99.90;;;;;;4846085;29;20214;-59
2022/04/16 06:39:37;;;;;;;2.17;1.98;;;7.20;99.90;;;;;;4848654;29;20297;-60
2022/04/16 06:42:08;;;;;;;2.13;1.92;;;7.10;99.90;;;;;;4835962;29;20202;-60
2022/04/16 06:44:41;;;;;;;1.98;1.80;;;7.10;99.90;;;;;;4846532;29;20228;-60
2022/04/16 06:47:12;;;;;;;2.13;2.03;;;7.10;99.90;;;;;;4834384;29;20301;-60
2022/04/16 06:49:43;;;;;;;2.60;2.10;;;7.00;99.90;;;;;;4839835;29;20213;-59
2022/04/16 06:52:14;;;;;;;2.00;1.90;;;7.00;99.90;;;;;;4845395;29;20319;-60
2022/04/16 06:54:45;;;;;;;2.15;1.65;;;7.00;99.90;;;;;;4838408;29;20286;-61
2022/04/16 06:57:16;;;;;;;2.63;2.42;;;7.00;99.90;;;;;;4847839;29;20205;-59
2022/04/16 06:59:48;;;;;;;2.35;1.80;;;7.00;99.90;;;;;;4849204;29;20288;-59
2022/04/16 07:02:22;;;;;;;1.90;1.80;;;7.10;99.90;;;;;;4850275;29;20254;-60
2022/04/16 07:04:54;;;;;;;2.10;1.90;;;7.00;99.90;;;;;;4839078;29;20219;-61
2022/04/16 07:07:25;;;;;;;3.22;2.33;;;7.00;99.90;;;;;;4845833;29;20206;-59
2022/04/16 07:09:55;;;;;;;2.50;2.30;;;6.90;99.90;;;;;;4837911;29;20244;-60
2022/04/16 07:12:26;;;;;;;2.50;2.30;;;6.80;99.90;;;;;;4845236;29;20224;-60
2022/04/16 07:14:59;;;;;;;3.25;2.40;;;6.80;99.90;;;;;;4834836;29;20244;-60
2022/04/16 07:17:30;;;;;;;2.80;2.53;;;6.80;99.90;;;;;;4846566;29;20221;-60
2022/04/16 07:20:01;;;;;;;2.70;2.30;;;6.80;99.90;;;;;;4848928;29;20220;-59
2022/04/16 07:22:34;;;;;;;4.18;2.25;;;6.80;99.90;;;;;;4837208;29;20308;-59
2022/04/16 07:25:06;;;;;;;2.35;2.15;;;6.80;99.90;;;;;;4846640;29;20284;-60
2022/04/16 07:27:37;;;;;;;2.40;2.15;;;6.80;99.90;;;;;;4848980;29;20223;-59
2022/04/16 07:30:10;;;;;;;2.30;2.20;;;6.70;99.90;;;;;;4835444;29;20206;-60
2022/04/16 07:32:41;;;;;;;3.30;2.63;;;6.70;99.90;;;;;;4845767;29;20311;-60
2022/04/16 07:35:12;;;;;;;2.33;2.10;;;6.80;99.90;;;;;;4833457;29;20711;-60
2022/04/16 07:37:43;;;;;;;2.22;2.10;;;6.80;99.90;;;;;;4846050;29;20657;-59
2022/04/16 07:40:15;;;;;;;2.20;2.00;;;6.90;99.90;;;;;;4848293;29;20213;-59
2022/04/16 07:42:45;;;;;;;2.88;2.67;;;6.90;99.90;;;;;;4838127;29;20228;-60
2022/04/16 07:45:18;;;;;;;2.20;2.10;;;6.70;99.90;;;;;;4849340;29;20244;-59
2022/04/16 07:47:49;;;;;;;2.75;2.55;;;6.70;99.90;;;;;;4840656;29;20209;-59
2022/04/16 07:50:20;;;;;;;2.80;2.55;;;6.80;99.90;;;;;;4837460;29;20205;-60
2022/04/16 07:52:51;;;;;;;2.40;2.17;;;6.70;99.90;;;;;;4840613;29;20209;-59
2022/04/16 07:55:23;;;;;;;2.63;2.42;;;6.70;99.90;;;;;;4839288;29;20225;-60
2022/04/16 07:57:54;;;;;;;2.53;2.33;;;6.60;99.90;;;;;;4835630;29;20210;-59
2022/04/16 08:00:27;;;;;;;3.17;2.88;;;6.70;99.90;;;;;;4833701;29;20272;-60
2022/04/16 08:02:58;;;;;;;2.42;2.22;;;6.60;99.90;;;;;;4841013;29;20285;-59
2022/04/16 08:05:29;;;;;;;2.65;2.33;;;6.60;99.90;;;;;;4845370;29;20227;-60
2022/04/16 08:08:00;;;;;;;3.20;3.00;;;6.60;99.90;;;;;;4836877;29;20425;-60
2022/04/16 08:10:31;;;;;;;3.33;2.55;;;6.50;99.90;;;;;;4849551;29;20575;-60
2022/04/16 08:13:02;;;;;;;2.70;2.50;;;6.50;99.90;;;;;;4848492;29;20225;-60
2022/04/16 08:15:35;;;;;;;2.90;2.60;;;6.50;99.90;;;;;;4843395;29;20260;-60
2022/04/16 08:18:08;;;;;;;2.47;2.28;;;6.50;99.90;;;;;;4847320;29;20235;-60
2022/04/16 08:20:38;;;;;;;2.80;2.60;;;6.50;99.90;;;;;;4840193;29;20212;-60
2022/04/16 08:23:09;;;;;;;2.80;2.55;;;6.50;99.90;;;;;;4836665;29;20541;-60
2022/04/16 08:25:46;;;;;;;2.95;2.55;;;6.50;99.90;;;;;;4837409;29;20213;-60
2022/04/16 08:28:17;;;;;;;3.13;2.60;;;6.50;99.90;;;;;;4847007;29;20213;-58
2022/04/16 08:30:50;;;;;;;2.67;2.47;;;6.40;99.90;;;;;;4847160;29;20302;-59
2022/04/16 08:33:20;;;;;;;2.90;2.70;;;6.40;99.90;;;;;;4844504;29;20206;-59
2022/04/16 08:35:51;;;;;;;2.80;2.50;;;6.40;99.90;;;;;;4841801;29;20271;-58
2022/04/16 08:38:22;;;;;;;2.30;2.10;;;6.30;99.90;;;;;;4836808;29;20239;-59
2022/04/16 08:40:54;;;;;;;5.13;3.60;;;6.40;99.90;;;;;;4837432;29;20217;-59
2022/04/16 08:43:25;;;;;;;2.95;2.75;;;6.30;99.90;;;;;;4846005;29;20232;-60
2022/04/16 08:45:58;;;;;;;2.72;2.53;;;6.30;99.90;;;;;;4832773;29;20313;-59
2022/04/16 08:48:30;;;;;;;2.47;2.38;;;6.20;99.90;;;;;;4842989;29;20206;-59
2022/04/16 08:51:05;;;;;;;2.88;2.60;;;6.30;99.90;;;;;;4844575;29;20209;-59
2022/04/16 08:53:37;;;;;;;3.40;3.20;;;6.30;99.90;;;;;;4843529;29;20217;-60
2022/04/16 08:56:10;;;;;;;2.78;2.58;;;6.30;99.90;;;;;;4849048;29;20228;-59
2022/04/16 08:58:41;;;;;;;3.05;2.85;;;6.30;99.90;;;;;;4845571;29;20216;-60
2022/04/16 09:01:13;;;;;;;3.80;3.47;;;6.30;99.90;;;;;;4839971;29;20223;-59
2022/04/16 09:03:44;;;;;;;3.13;2.83;;;6.20;99.90;;;;;;4842333;29;20207;-60
2022/04/16 09:06:23;;;;;;;3.00;2.67;;;6.30;99.90;;;;;;4840830;29;20214;-60
2022/04/16 09:08:55;;;;;;;2.70;2.50;;;6.30;99.90;;;;;;4836857;29;20237;-61
2022/04/16 09:11:29;;;;;;;2.72;2.53;;;6.10;99.90;;;;;;4832701;29;20206;-60
2022/04/16 09:14:00;;;;;;;2.55;2.38;;;6.10;99.90;;;;;;4845734;29;20208;-60
2022/04/16 09:16:34;;;;;;;4.25;2.72;;;6.10;99.90;;;;;;4846557;29;20263;-59
2022/04/16 09:19:05;;;;;;;3.03;2.80;;;6.10;99.90;;;;;;4849459;29;20212;-59
2022/04/16 09:21:35;;;;;;;3.30;2.88;;;6.20;99.90;;;;;;4834583;29;20281;-59
2022/04/16 09:24:10;;;;;;;5.53;2.70;;;6.20;99.90;;;;;;4842510;29;20210;-60
2022/04/16 09:26:42;;;;;;;3.08;2.88;;;6.20;99.90;;;;;;4848185;29;20304;-59
2022/04/16 09:29:14;;;;;;;2.90;2.60;;;6.10;99.90;;;;;;4848848;29;20216;-60
2022/04/16 09:31:49;;;;;;;2.47;2.28;;;6.10;99.90;;;;;;4847608;29;20301;-59
2022/04/16 09:34:21;;;;;;;4.07;2.70;;;6.10;99.90;;;;;;4849875;29;20678;-59
2022/04/16 09:36:54;;;;;;;2.50;2.30;;;6.10;99.90;;;;;;4849479;29;20233;-59
2022/04/16 09:39:25;;;;;;;2.53;2.33;;;6.10;99.90;;;;;;4849298;29;20643;-59
2022/04/16 09:41:55;;;;;;;3.28;2.97;;;6.10;99.90;;;;;;4845776;29;20223;-59
2022/04/16 09:44:27;;;;;;;3.17;2.53;;;6.10;99.90;;;;;;4852517;29;20223;-59
2022/04/16 09:47:00;;;;;;;2.80;2.60;;;6.10;99.90;;;;;;4845109;29;20214;-59
2022/04/16 09:49:35;;;;;;;3.00;2.70;;;6.10;99.90;;;;;;4852069;29;20296;-59
2022/04/16 09:52:09;;;;;;;2.90;2.60;;;6.00;99.90;;;;;;4839147;29;20627;-58
2022/04/16 09:54:42;;;;;;;2.88;2.58;;;6.10;99.90;;;;;;4853334;29;20198;-59
2022/04/16 09:57:20;;;;;;;2.97;2.75;;;6.00;99.90;;;;;;4853382;29;20231;-59
2022/04/16 09:59:54;;;;;;;3.67;3.08;;;6.10;99.90;;;;;;4852414;29;20353;-59
2022/04/16 10:02:31;;;;;;;2.70;2.50;;;6.00;99.90;;;;;;4846266;29;20217;-60
2022/04/16 10:05:02;;;;;;;3.00;2.80;;;5.90;99.90;;;;;;4846518;29;20209;-59
2022/04/16 10:07:34;;;;;;;2.55;2.35;;;5.80;99.90;;;;;;4852860;29;20213;-60
2022/04/16 10:10:17;;;;;;;2.85;2.65;;;5.90;99.90;;;;;;4852933;29;20237;-59
2022/04/16 10:13:03;;;;;;;2.53;2.33;;;5.90;99.90;;;;;;4843060;29;20266;-59
2022/04/16 10:16:01;;;;;;;2.83;2.60;;;5.90;99.90;;;;;;4841737;29;20370;-59
2022/04/16 10:18:36;;;;;;;3.03;2.83;;;5.80;99.90;;;;;;4848867;29;20248;-59
2022/04/16 10:21:14;;;;;;;3.13;2.90;;;5.90;99.90;;;;;;4852590;29;20205;-59
2022/04/16 10:23:47;;;;;;;5.68;3.53;;;5.90;99.90;;;;;;4836526;29;20361;-60
2022/04/16 10:26:18;;;;;;;3.50;2.80;;;5.80;99.90;;;;;;4849514;29;20217;-59
2022/04/16 10:28:55;;;;;;;4.22;2.88;;;5.80;99.90;;;;;;4833791;29;20222;-59
2022/04/16 10:31:27;;;;;;;2.70;2.50;;;5.70;99.90;;;;;;4834375;29;20216;-60
2022/04/16 10:34:02;;;;;;;3.10;2.90;;;5.70;99.90;;;;;;4835224;29;20221;-59
2022/04/16 10:36:36;;;;;;;3.25;3.00;;;5.70;99.90;;;;;;4834982;29;20210;-59
2022/04/16 10:39:17;;;;;;;3.65;3.30;;;5.80;99.90;;;;;;4834217;29;20221;-59
2022/04/16 10:41:58;;;;;;;3.35;3.05;;;5.80;99.90;;;;;;4846897;29;20206;-60
2022/04/16 10:44:31;;;;;;;3.17;2.78;;;5.80;99.90;;;;;;4834842;29;20209;-58
2022/04/16 10:47:05;;;;;;;2.95;2.75;;;5.70;99.90;;;;;;4836367;29;20210;-60
2022/04/16 10:49:42;;;;;;;2.60;2.40;;;5.60;99.90;;;;;;4840021;29;20209;-60
2022/04/16 10:52:23;;;;;;;3.50;2.90;;;5.70;99.90;;;;;;4853064;29;20208;-59
2022/04/16 10:55:04;;;;;;;2.40;2.30;;;5.60;99.90;;;;;;4852429;29;20204;-59
2022/04/16 10:57:35;;;;;;;2.78;2.58;;;5.60;99.90;;;;;;4838216;29;20241;-59
2022/04/16 11:00:14;;;;;;;3.25;2.85;;;5.60;99.90;;;;;;4849557;29;20228;-59
2022/04/16 11:03:17;;;;;;;3.28;3.08;;;5.60;99.90;;;;;;4852334;29;20234;-59
2022/04/16 11:05:50;;;;;;;2.35;2.15;;;5.60;99.90;;;;;;4851416;29;20216;-59
2022/04/16 11:08:25;;;;;;;2.50;2.30;;;5.70;99.90;;;;;;4836708;29;20369;-59
2022/04/16 11:11:01;;;;;;;2.70;2.50;;;5.70;99.90;;;;;;4840724;29;20206;-58
2022/04/16 11:13:37;;;;;;;2.70;2.50;;;5.70;99.90;;;;;;4833380;29;20196;-59
2022/04/16 11:16:08;;;;;;;3.88;2.50;;;5.60;99.90;;;;;;4843503;29;20209;-59
2022/04/16 11:18:47;;;;;;;2.28;2.17;;;5.60;99.90;;;;;;4842885;29;20252;-60
2022/04/16 11:21:23;;;;;;;2.13;1.92;;;5.60;99.90;;;;;;4834015;29;20327;-59
2022/04/16 11:23:55;;;;;;;2.40;2.20;;;5.60;99.90;;;;;;4841726;29;20233;-59
2022/04/16 11:34:58;;;;;;;2.30;2.10;;;5.50;99.90;;;;;;4851190;29;20643;-60
2022/04/16 11:37:33;;;;;;;2.00;1.80;;;5.50;99.90;;;;;;4851471;29;20266;-59
2022/04/16 11:40:06;;;;;;;2.30;2.10;;;5.50;99.90;;;;;;4848690;29;20272;-60
2022/04/16 11:42:37;;;;;;;2.88;2.30;;;5.50;99.90;;;;;;4832619;29;20214;-60
2022/04/16 11:45:10;;;;;;;1.90;1.80;;;5.50;99.90;;;;;;4850522;29;20210;-59
2022/04/16 11:47:40;;;;;;;2.15;1.95;;;5.50;99.90;;;;;;4850909;29;20205;-59
2022/04/16 11:50:13;;;;;;;2.53;2.33;;;5.50;99.90;;;;;;4840857;29;20202;-59
2022/04/16 11:52:52;;;;;;;2.60;2.40;;;5.40;99.90;;;;;;4843682;29;20559;-59
2022/04/16 11:55:23;;;;;;;2.70;2.50;;;5.40;99.90;;;;;;4849755;29;20213;-59
2022/04/16 11:57:54;;;;;;;2.42;2.28;;;5.40;99.90;;;;;;4849294;29;20241;-59
2022/04/16 12:00:26;;;;;;;2.30;2.10;;;5.30;99.90;;;;;;4839076;29;20282;-60
2022/04/16 12:02:58;;;;;;;2.17;2.00;;;5.20;99.90;;;;;;4843111;29;20678;-59
2022/04/16 12:05:30;;;;;;;2.50;2.30;;;5.20;99.90;;;;;;4850662;29;20189;-59
2022/04/16 12:08:04;;;;;;;2.80;2.60;;;5.20;99.90;;;;;;4843662;29;20220;-59
2022/04/16 12:10:37;;;;;;;2.58;2.38;;;5.20;99.90;;;;;;4832901;29;20274;-59
2022/04/16 12:13:13;;;;;;;2.65;2.45;;;5.30;99.90;;;;;;4831802;29;20229;-59
2022/04/16 12:15:44;;;;;;;2.67;2.47;;;5.30;99.90;;;;;;4840218;29;20210;-58
2022/04/16 12:18:18;;;;;;;2.67;2.47;;;5.30;99.90;;;;;;4841775;29;20312;-59
2022/04/16 12:20:50;;;;;;;2.55;2.40;;;5.20;99.90;;;;;;4837655;29;20201;-58
2022/04/16 12:23:25;;;;;;;2.53;2.42;;;5.10;99.90;;;;;;4848510;29;20224;-59
2022/04/16 12:26:05;;;;;;;2.85;2.55;;;5.00;99.90;;;;;;4845094;29;20217;-59
2022/04/16 12:28:38;;;;;;;4.75;2.90;;;5.00;99.90;;;;;;4837947;29;20209;-58
2022/04/16 12:31:09;;;;;;;2.80;2.20;;;5.00;99.90;;;;;;4840133;29;20222;-59
2022/04/16 12:33:39;;;;;;;2.55;2.35;;;4.90;99.90;;;;;;4835670;29;20219;-59
2022/04/16 12:36:10;;;;;;;3.60;3.00;;;5.00;99.90;;;;;;4850756;29;20236;-59
2022/04/16 12:38:42;;;;;;;2.75;2.30;;;4.90;99.90;;;;;;4840238;29;20228;-59
2022/04/16 12:41:13;;;;;;;2.97;2.65;;;4.90;99.90;;;;;;4849330;29;20217;-59
2022/04/16 12:43:45;;;;;;;2.70;2.50;;;4.90;99.90;;;;;;4848741;29;20710;-59
2022/04/16 12:46:16;;;;;;;3.13;2.38;;;4.80;99.90;;;;;;4842663;29;20222;-59
2022/04/16 12:48:47;;;;;;;2.83;2.63;;;4.80;99.90;;;;;;4840015;29;20305;-59
2022/04/16 12:51:18;;;;;;;2.47;2.30;;;4.70;99.90;;;;;;4849478;29;20520;-59
2022/04/16 12:53:51;;;;;;;3.45;2.53;;;4.70;99.90;;;;;;4850088;29;20204;-59
2022/04/16 12:56:22;;;;;;;2.60;2.35;;;4.60;99.90;;;;;;4843492;29;20246;-59
2022/04/16 12:58:53;;;;;;;2.70;2.55;;;4.60;99.90;;;;;;4849693;29;20269;-59
2022/04/16 13:01:24;;;;;;;2.90;2.70;;;4.60;99.90;;;;;;4844505;29;20213;-59
2022/04/16 13:03:55;;;;;;;3.67;2.80;;;4.50;99.90;;;;;;4836379;29;20212;-59
2022/04/16 13:06:26;;;;;;;2.55;2.38;;;4.50;99.90;;;;;;4842641;29;20201;-57
2022/04/16 13:09:00;;;;;;;3.15;2.63;;;4.40;99.90;;;;;;4850046;29;20245;-57
2022/04/16 13:11:31;;;;;;;3.13;2.83;;;4.40;99.90;;;;;;4834596;29;20218;-58
2022/04/16 13:14:02;;;;;;;3.25;3.05;;;4.40;99.90;;;;;;4844079;29;20218;-60
2022/04/16 13:16:33;;;;;;;3.30;2.72;;;4.40;99.90;;;;;;4842258;29;20217;-59
2022/04/16 13:19:03;;;;;;;3.60;3.30;;;4.30;99.90;;;;;;4851198;29;20237;-58
2022/04/16 13:21:36;;;;;;;3.00;2.70;;;4.20;99.90;;;;;;4836551;29;20210;-60
2022/04/16 13:24:12;;;;;;;2.90;2.40;;;4.20;99.90;;;;;;4853027;29;20224;-59
2022/04/16 13:26:43;;;;;;;3.90;2.60;;;4.10;99.90;;;;;;4843511;29;20280;-60
2022/04/16 13:29:15;;;;;;;2.95;2.75;;;4.10;99.90;;;;;;4839397;29;20209;-59
2022/04/16 13:31:46;;;;;;;4.13;3.17;;;4.10;99.90;;;;;;4835708;29;20224;-59
2022/04/16 13:34:17;;;;;;;3.38;3.08;;;4.20;99.90;;;;;;4838933;29;20584;-59
2022/04/16 13:36:48;;;;;;;3.22;2.92;;;4.30;99.90;;;;;;4851166;29;20204;-59
2022/04/16 13:42:08;;;;;;;4.32;2.88;;;4.30;99.90;;;;;;4835580;29;20228;-59
2022/04/16 13:44:39;;;;;;;3.10;2.80;;;4.40;99.90;;;;;;4834191;29;20239;-59
2022/04/16 13:47:10;;;;;;;2.88;2.53;;;4.40;99.90;;;;;;4852538;29;20313;-59
2022/04/16 13:49:41;;;;;;;4.18;2.95;;;4.50;99.90;;;;;;4852887;29;20217;-58
2022/04/16 13:52:13;;;;;;;5.50;2.80;;;4.60;99.90;;;;;;4852937;29;20205;-59